sensor_id;sensor_type;location;lat;lon;timestamp;pressure;altitude;pressure_sealevel;temperature;humidity
21574;BME280;10948;48.706;9.258;2023-02-12T00:00:37;99746.28;;;5.40;100.00
21574;BME280;10948;48.706;9.258;2023-02-12T00:03:03;99752.44;;;5.22;100.00
21574;BME280;10948;48.706;9.258;2023-02-12T00:05:28;99745.56;;;5.23;100.00
21574;BME280;10948;48.706;9.258;2023-02-12T00:07:53;99754.19;;;5.20;100.00
21574;BME280;10948;48.706;9.258;2023-02-12T00:10:18;99756.69;;;5.29;100.00
21574;BME280;10948;48.706;9.258;2023-02-12T00:12:44;99761.88;;;5.23;100.00
21574;BME280;10948;48.706;9.258;2023-02-12T00:15:09;99748.88;;;5.38;100.00
21574;BME280;10948;48.706;9.258;2023-02-12T00:17:34;99753.25;;;5.26;100.00
21574;BME280;10948;48.706;9.258;2023-02-12T00:19:59;99757.44;;;5.43;100.00
21574;BME280;10948;48.706;9.258;2023-02-12T00:22:25;99760.88;;;5.42;100.00
21574;BME280;10948;48.706;9.258;2023-02-12T00:24:50;99761.03;;;5.21;100.00
21574;BME280;10948;48.706;9.258;2023-02-12T00:27:15;99765.16;;;5.46;100.00
21574;BME280;10948;48.706;9.258;2023-02-12T00:29:40;99760.94;;;5.39;100.00
21574;BME280;10948;48.706;9.258;2023-02-12T00:32:06;99767.78;;;5.37;100.00
21574;BME280;10948;48.706;9.258;2023-02-12T00:34:31;99768.75;;;5.24;100.00
21574;BME280;10948;48.706;9.258;2023-02-12T00:36:57;99762.59;;;5.43;100.00
21574;BME280;10948;48.706;9.258;2023-02-12T00:39:22;99760.00;;;5.43;100.00
21574;BME280;10948;48.706;9.258;2023-02-12T00:41:47;99766.84;;;5.50;100.00
21574;BME280;10948;48.706;9.258;2023-02-12T00:44:12;99765.13;;;5.51;100.00
21574;BME280;10948;48.706;9.258;2023-02-12T00:46:37;99763.53;;;5.33;100.00
21574;BME280;10948;48.706;9.258;2023-02-12T00:49:03;99762.63;;;5.37;100.00
21574;BME280;10948;48.706;9.258;2023-02-12T00:51:28;99776.41;;;5.39;100.00
21574;BME280;10948;48.706;9.258;2023-02-12T00:53:53;99777.38;;;5.26;100.00
21574;BME280;10948;48.706;9.258;2023-02-12T00:56:18;99773.78;;;5.42;100.00
21574;BME280;10948;48.706;9.258;2023-02-12T00:58:43;99768.59;;;5.47;100.00
21574;BME280;10948;48.706;9.258;2023-02-12T01:01:09;99774.78;;;5.26;100.00
21574;BME280;10948;48.706;9.258;2023-02-12T01:03:34;99778.25;;;5.22;100.00
21574;BME280;10948;48.706;9.258;2023-02-12T01:05:59;99770.41;;;5.33;100.00
21574;BME280;10948;48.706;9.258;2023-02-12T01:08:24;99776.41;;;5.36;100.00
21574;BME280;10948;48.706;9.258;2023-02-12T01:11:00;99776.50;;;5.27;100.00
21574;BME280;10948;48.706;9.258;2023-02-12T01:13:25;99777.47;;;5.10;100.00
21574;BME280;10948;48.706;9.258;2023-02-12T01:16:14;99773.19;;;5.04;100.00
21574;BME280;10948;48.706;9.258;2023-02-12T01:18:40;99766.38;;;4.95;100.00
21574;BME280;10948;48.706;9.258;2023-02-12T01:21:13;99769.00;;;4.90;100.00
21574;BME280;10948;48.706;9.258;2023-02-12T01:23:39;99768.97;;;4.95;100.00
21574;BME280;10948;48.706;9.258;2023-02-12T01:26:05;99776.66;;;5.01;100.00
21574;BME280;10948;48.706;9.258;2023-02-12T01:28:31;99772.28;;;5.14;100.00
21574;BME280;10948;48.706;9.258;2023-02-12T01:30:56;99776.59;;;5.13;100.00
21574;BME280;10948;48.706;9.258;2023-02-12T01:33:22;99772.38;;;5.00;100.00
21574;BME280;10948;48.706;9.258;2023-02-12T01:35:47;99772.50;;;4.76;100.00
21574;BME280;10948;48.706;9.258;2023-02-12T01:38:12;99765.53;;;4.93;100.00
21574;BME280;10948;48.706;9.258;2023-02-12T01:40:37;99770.59;;;5.07;100.00
21574;BME280;10948;48.706;9.258;2023-02-12T01:43:03;99778.38;;;5.02;100.00
21574;BME280;10948;48.706;9.258;2023-02-12T01:47:53;99777.50;;;5.03;100.00
21574;BME280;10948;48.706;9.258;2023-02-12T01:50:18;99769.72;;;5.12;100.00
21574;BME280;10948;48.706;9.258;2023-02-12T01:52:46;99768.19;;;4.81;100.00
21574;BME280;10948;48.706;9.258;2023-02-12T01:55:12;99773.28;;;4.93;100.00
21574;BME280;10948;48.706;9.258;2023-02-12T01:57:39;99768.00;;;5.13;100.00
21574;BME280;10948;48.706;9.258;2023-02-12T02:00:06;99768.13;;;4.90;100.00
21574;BME280;10948;48.706;9.258;2023-02-12T02:02:32;99750.81;;;5.09;100.00
21574;BME280;10948;48.706;9.258;2023-02-12T02:04:59;99750.97;;;4.83;100.00
21574;BME280;10948;48.706;9.258;2023-02-12T02:07:25;99759.59;;;4.79;100.00
21574;BME280;10948;48.706;9.258;2023-02-12T02:09:51;99765.59;;;4.79;100.00
21574;BME280;10948;48.706;9.258;2023-02-12T02:12:16;99764.78;;;4.73;100.00
21574;BME280;10948;48.706;9.258;2023-02-12T02:15:01;99756.13;;;4.86;100.00
21574;BME280;10948;48.706;9.258;2023-02-12T02:35:27;99743.19;;;4.90;100.00
21574;BME280;10948;48.706;9.258;2023-02-12T02:40:26;99735.53;;;4.80;100.00
21574;BME280;10948;48.706;9.258;2023-02-12T02:45:21;99733.81;;;4.77;100.00
21574;BME280;10948;48.706;9.258;2023-02-12T02:47:52;99732.91;;;4.83;100.00
21574;BME280;10948;48.706;9.258;2023-02-12T02:50:20;99732.91;;;4.86;100.00
21574;BME280;10948;48.706;9.258;2023-02-12T02:52:58;99739.72;;;4.99;100.00
21574;BME280;10948;48.706;9.258;2023-02-12T02:55:26;99744.06;;;4.85;100.00
21574;BME280;10948;48.706;9.258;2023-02-12T02:57:54;99745.72;;;5.01;100.00
21574;BME280;10948;48.706;9.258;2023-02-12T03:01:06;99736.25;;;5.00;100.00
21574;BME280;10948;48.706;9.258;2023-02-12T03:03:08;99734.63;;;4.87;100.00
21574;BME280;10948;48.706;9.258;2023-02-12T03:05:40;99732.84;;;4.96;100.00
21574;BME280;10948;48.706;9.258;2023-02-12T03:10:36;99735.50;;;4.86;100.00
21574;BME280;10948;48.706;9.258;2023-02-12T03:15:39;99754.28;;;5.06;100.00
21574;BME280;10948;48.706;9.258;2023-02-12T03:18:10;99744.81;;;5.06;100.00
21574;BME280;10948;48.706;9.258;2023-02-12T03:20:41;99749.06;;;5.14;100.00
21574;BME280;10948;48.706;9.258;2023-02-12T03:23:14;99743.97;;;5.06;100.00
21574;BME280;10948;48.706;9.258;2023-02-12T03:25:57;99748.25;;;5.03;100.00
21574;BME280;10948;48.706;9.258;2023-02-12T03:28:29;99749.16;;;5.00;100.00
21574;BME280;10948;48.706;9.258;2023-02-12T03:31:06;99756.06;;;4.92;100.00
21574;BME280;10948;48.706;9.258;2023-02-12T03:33:38;99749.16;;;4.97;100.00
21574;BME280;10948;48.706;9.258;2023-02-12T03:36:07;99749.97;;;5.09;100.00
21574;BME280;10948;48.706;9.258;2023-02-12T03:38:36;99752.53;;;5.04;100.00
21574;BME280;10948;48.706;9.258;2023-02-12T03:43:29;99741.41;;;5.00;100.00
21574;BME280;10948;48.706;9.258;2023-02-12T03:45:58;99749.19;;;4.94;100.00
21574;BME280;10948;48.706;9.258;2023-02-12T03:48:36;99743.13;;;5.01;100.00
21574;BME280;10948;48.706;9.258;2023-02-12T03:53:33;99740.66;;;4.86;100.00
21574;BME280;10948;48.706;9.258;2023-02-12T03:56:00;99752.59;;;4.94;100.00
21574;BME280;10948;48.706;9.258;2023-02-12T03:58:28;99749.25;;;4.82;100.00
21574;BME280;10948;48.706;9.258;2023-02-12T04:00:54;99751.00;;;4.77;100.00
21574;BME280;10948;48.706;9.258;2023-02-12T04:03:20;99751.00;;;4.80;100.00
21574;BME280;10948;48.706;9.258;2023-02-12T04:05:46;99753.53;;;4.83;100.00
21574;BME280;10948;48.706;9.258;2023-02-12T04:08:11;99755.28;;;4.81;100.00
21574;BME280;10948;48.706;9.258;2023-02-12T04:18:43;99769.03;;;4.77;100.00
21574;BME280;10948;48.706;9.258;2023-02-12T04:24:13;99763.00;;;4.84;100.00
21574;BME280;10948;48.706;9.258;2023-02-12T04:26:49;99764.66;;;4.91;100.00
21574;BME280;10948;48.706;9.258;2023-02-12T04:29:28;99773.34;;;4.72;100.00
21574;BME280;10948;48.706;9.258;2023-02-12T04:36:53;99767.25;;;4.92;100.00
21574;BME280;10948;48.706;9.258;2023-02-12T04:39:20;99772.41;;;4.91;100.00
21574;BME280;10948;48.706;9.258;2023-02-12T04:41:47;99778.31;;;5.10;100.00
21574;BME280;10948;48.706;9.258;2023-02-12T04:44:23;99771.47;;;5.03;100.00
21574;BME280;10948;48.706;9.258;2023-02-12T04:46:49;99778.41;;;4.99;100.00
21574;BME280;10948;48.706;9.258;2023-02-12T04:49:15;99771.53;;;4.95;100.00
21574;BME280;10948;48.706;9.258;2023-02-12T04:51:41;99775.03;;;4.88;100.00
21574;BME280;10948;48.706;9.258;2023-02-12T04:54:06;99782.81;;;4.77;100.00
21574;BME280;10948;48.706;9.258;2023-02-12T04:56:31;99776.75;;;4.86;100.00
21574;BME280;10948;48.706;9.258;2023-02-12T04:58:57;99778.44;;;4.93;100.00
21574;BME280;10948;48.706;9.258;2023-02-12T05:01:22;99775.03;;;4.80;100.00
21574;BME280;10948;48.706;9.258;2023-02-12T05:03:47;99779.38;;;4.72;100.00
21574;BME280;10948;48.706;9.258;2023-02-12T05:06:12;99787.97;;;4.74;100.00
21574;BME280;10948;48.706;9.258;2023-02-12T05:08:38;99783.69;;;4.75;100.00
21574;BME280;10948;48.706;9.258;2023-02-12T05:11:06;99780.28;;;4.64;100.00
21574;BME280;10948;48.706;9.258;2023-02-12T05:13:32;99776.84;;;4.63;100.00
21574;BME280;10948;48.706;9.258;2023-02-12T05:15:57;99775.16;;;4.55;100.00
21574;BME280;10948;48.706;9.258;2023-02-12T05:18:22;99771.69;;;4.68;100.00
21574;BME280;10948;48.706;9.258;2023-02-12T05:20:57;99780.19;;;4.82;100.00
21574;BME280;10948;48.706;9.258;2023-02-12T05:23:26;99777.56;;;4.92;100.00
21574;BME280;10948;48.706;9.258;2023-02-12T05:25:52;99770.69;;;4.90;100.00
21574;BME280;10948;48.706;9.258;2023-02-12T05:28:17;99774.19;;;4.77;100.00
21574;BME280;10948;48.706;9.258;2023-02-12T05:30:42;99779.38;;;4.71;100.00
21574;BME280;10948;48.706;9.258;2023-02-12T05:33:07;99771.75;;;4.50;100.00
21574;BME280;10948;48.706;9.258;2023-02-12T05:35:33;99770.00;;;4.55;100.00
21574;BME280;10948;48.706;9.258;2023-02-12T05:37:59;99776.84;;;4.68;100.00
21574;BME280;10948;48.706;9.258;2023-02-12T05:40:24;99780.28;;;4.64;100.00
21574;BME280;10948;48.706;9.258;2023-02-12T05:42:49;99779.44;;;4.60;100.00
21574;BME280;10948;48.706;9.258;2023-02-12T05:45:14;99774.28;;;4.60;100.00
21574;BME280;10948;48.706;9.258;2023-02-12T05:47:39;99773.47;;;4.48;100.00
21574;BME280;10948;48.706;9.258;2023-02-12T05:50:05;99772.56;;;4.58;100.00
21574;BME280;10948;48.706;9.258;2023-02-12T05:52:30;99780.28;;;4.64;100.00
21574;BME280;10948;48.706;9.258;2023-02-12T05:54:55;99778.50;;;4.81;100.00
21574;BME280;10948;48.706;9.258;2023-02-12T05:57:20;99773.28;;;4.90;100.00
21574;BME280;10948;48.706;9.258;2023-02-12T05:59:46;99777.63;;;4.82;100.00
21574;BME280;10948;48.706;9.258;2023-02-12T06:02:11;99779.38;;;4.74;100.00
21574;BME280;10948;48.706;9.258;2023-02-12T06:04:36;99782.75;;;4.86;100.00
21574;BME280;10948;48.706;9.258;2023-02-12T06:07:01;99777.59;;;4.89;100.00
21574;BME280;10948;48.706;9.258;2023-02-12T06:09:27;99781.91;;;4.86;100.00
21574;BME280;10948;48.706;9.258;2023-02-12T06:11:52;99783.66;;;4.81;100.00
21574;BME280;10948;48.706;9.258;2023-02-12T06:14:18;99793.13;;;4.79;100.00
21574;BME280;10948;48.706;9.258;2023-02-12T06:16:44;99786.25;;;4.75;100.00
21574;BME280;10948;48.706;9.258;2023-02-12T06:19:10;99784.53;;;4.78;100.00
21574;BME280;10948;48.706;9.258;2023-02-12T06:21:36;99782.81;;;4.77;100.00
21574;BME280;10948;48.706;9.258;2023-02-12T06:24:01;99777.66;;;4.76;100.00
21574;BME280;10948;48.706;9.258;2023-02-12T06:26:27;99778.53;;;4.69;100.00
21574;BME280;10948;48.706;9.258;2023-02-12T06:28:52;99777.66;;;4.68;100.00
21574;BME280;10948;48.706;9.258;2023-02-12T06:31:18;99785.31;;;4.91;100.00
21574;BME280;10948;48.706;9.258;2023-02-12T06:33:44;99790.41;;;5.06;100.00
21574;BME280;10948;48.706;9.258;2023-02-12T06:36:09;99785.22;;;5.07;100.00
21574;BME280;10948;48.706;9.258;2023-02-12T06:38:34;99797.31;;;4.92;100.00
21574;BME280;10948;48.706;9.258;2023-02-12T06:41:00;99791.31;;;4.97;100.00
21574;BME280;10948;48.706;9.258;2023-02-12T06:43:25;99797.38;;;4.83;100.00
21574;BME280;10948;48.706;9.258;2023-02-12T06:45:50;99793.91;;;4.90;100.00
21574;BME280;10948;48.706;9.258;2023-02-12T06:48:16;99799.13;;;4.78;100.00
21574;BME280;10948;48.706;9.258;2023-02-12T06:50:41;99796.53;;;4.81;100.00
21574;BME280;10948;48.706;9.258;2023-02-12T06:53:06;99793.91;;;4.90;100.00
21574;BME280;10948;48.706;9.258;2023-02-12T06:55:33;99799.94;;;4.87;100.00
21574;BME280;10948;48.706;9.258;2023-02-12T06:57:58;99801.66;;;4.88;100.00
21574;BME280;10948;48.706;9.258;2023-02-12T07:00:23;99805.84;;;5.12;100.00
21574;BME280;10948;48.706;9.258;2023-02-12T07:02:52;99807.72;;;4.86;100.00
21574;BME280;10948;48.706;9.258;2023-02-12T07:05:18;99805.91;;;5.00;100.00
21574;BME280;10948;48.706;9.258;2023-02-12T07:07:43;99806.81;;;4.91;100.00
21574;BME280;10948;48.706;9.258;2023-02-12T07:10:08;99810.22;;;4.93;100.00
21574;BME280;10948;48.706;9.258;2023-02-12T07:12:35;99805.88;;;5.03;100.00
21574;BME280;10948;48.706;9.258;2023-02-12T07:15:00;99805.88;;;5.06;100.00
21574;BME280;10948;48.706;9.258;2023-02-12T07:17:27;99811.75;;;5.28;100.00
21574;BME280;10948;48.706;9.258;2023-02-12T07:19:53;99809.97;;;5.38;100.00
21574;BME280;10948;48.706;9.258;2023-02-12T07:22:18;99809.09;;;5.37;100.00
21574;BME280;10948;48.706;9.258;2023-02-12T07:24:45;99809.16;;;5.31;100.00
21574;BME280;10948;48.706;9.258;2023-02-12T07:27:10;99812.69;;;5.18;100.00
21574;BME280;10948;48.706;9.258;2023-02-12T07:29:35;99816.00;;;5.35;100.00
21574;BME280;10948;48.706;9.258;2023-02-12T07:32:00;99817.84;;;5.17;100.00
21574;BME280;10948;48.706;9.258;2023-02-12T07:34:25;99818.69;;;5.17;100.00
21574;BME280;10948;48.706;9.258;2023-02-12T07:36:51;99813.50;;;5.26;100.00
21574;BME280;10948;48.706;9.258;2023-02-12T07:39:16;99812.63;;;5.27;100.00
21574;BME280;10948;48.706;9.258;2023-02-12T07:41:41;99812.56;;;5.36;100.00
21574;BME280;10948;48.706;9.258;2023-02-12T07:44:09;99816.84;;;5.40;100.00
21574;BME280;10948;48.706;9.258;2023-02-12T07:46:55;99820.97;;;5.62;100.00
21574;BME280;10948;48.706;9.258;2023-02-12T07:49:20;99812.31;;;5.68;100.00
21574;BME280;10948;48.706;9.258;2023-02-12T07:51:46;99814.00;;;5.79;100.00
21574;BME280;10948;48.706;9.258;2023-02-12T07:54:12;99807.00;;;5.90;100.00
21574;BME280;10948;48.706;9.258;2023-02-12T07:56:38;99806.22;;;5.81;100.00
21574;BME280;10948;48.706;9.258;2023-02-12T07:59:07;99807.97;;;5.80;100.00
21574;BME280;10948;48.706;9.258;2023-02-12T08:01:36;99804.50;;;5.78;100.00
21574;BME280;10948;48.706;9.258;2023-02-12T08:04:03;99809.66;;;5.81;100.00
21574;BME280;10948;48.706;9.258;2023-02-12T08:06:29;99812.22;;;5.87;100.00
21574;BME280;10948;48.706;9.258;2023-02-12T08:08:57;99808.59;;;6.05;100.00
21574;BME280;10948;48.706;9.258;2023-02-12T08:11:23;99809.25;;;6.25;100.00
21574;BME280;10948;48.706;9.258;2023-02-12T08:13:48;99805.84;;;6.20;100.00
21574;BME280;10948;48.706;9.258;2023-02-12T08:16:15;99810.41;;;5.95;100.00
21574;BME280;10948;48.706;9.258;2023-02-12T08:18:41;99809.41;;;6.10;100.00
21574;BME280;10948;48.706;9.258;2023-02-12T08:21:13;99807.44;;;6.33;100.00
21574;BME280;10948;48.706;9.258;2023-02-12T08:23:39;99804.84;;;6.36;100.00
21574;BME280;10948;48.706;9.258;2023-02-12T08:28:30;99809.97;;;6.37;100.00
21574;BME280;10948;48.706;9.258;2023-02-12T08:30:58;99807.38;;;6.37;100.00
21574;BME280;10948;48.706;9.258;2023-02-12T08:33:24;99806.44;;;6.47;100.00
21574;BME280;10948;48.706;9.258;2023-02-12T08:35:49;99809.09;;;6.40;100.00
21574;BME280;10948;48.706;9.258;2023-02-12T08:38:14;99810.59;;;6.62;100.00
21574;BME280;10948;48.706;9.258;2023-02-12T08:40:40;99806.81;;;6.87;100.00
21574;BME280;10948;48.706;9.258;2023-02-12T08:43:05;99796.53;;;6.81;100.00
21574;BME280;10948;48.706;9.258;2023-02-12T08:45:31;99795.34;;;7.07;100.00
21574;BME280;10948;48.706;9.258;2023-02-12T08:47:56;99798.56;;;7.24;100.00
21574;BME280;10948;48.706;9.258;2023-02-12T08:50:21;99798.50;;;7.27;100.00
21574;BME280;10948;48.706;9.258;2023-02-12T08:52:46;99797.38;;;7.43;100.00
21574;BME280;10948;48.706;9.258;2023-02-12T08:55:12;99793.91;;;7.46;100.00
21574;BME280;10948;48.706;9.258;2023-02-12T08:57:38;99798.31;;;7.39;100.00
21574;BME280;10948;48.706;9.258;2023-02-12T09:00:03;99799.97;;;7.43;100.00
21574;BME280;10948;48.706;9.258;2023-02-12T09:02:29;99799.88;;;7.49;100.00
21574;BME280;10948;48.706;9.258;2023-02-12T09:04:54;99791.22;;;7.50;100.00
21574;BME280;10948;48.706;9.258;2023-02-12T09:07:19;99800.19;;;7.31;100.00
21574;BME280;10948;48.706;9.258;2023-02-12T09:09:45;99804.88;;;7.61;100.00
21574;BME280;10948;48.706;9.258;2023-02-12T09:12:10;99798.47;;;7.83;100.00
21574;BME280;10948;48.706;9.258;2023-02-12T09:14:35;99797.25;;;8.05;100.00
21574;BME280;10948;48.706;9.258;2023-02-12T09:17:00;99808.25;;;8.21;100.00
21574;BME280;10948;48.706;9.258;2023-02-12T09:19:25;99803.50;;;8.42;100.00
21574;BME280;10948;48.706;9.258;2023-02-12T09:21:51;99793.06;;;8.45;100.00
21574;BME280;10948;48.706;9.258;2023-02-12T09:24:17;99792.69;;;8.63;100.00
21574;BME280;10948;48.706;9.258;2023-02-12T09:26:42;99792.84;;;8.57;100.00
21574;BME280;10948;48.706;9.258;2023-02-12T09:29:08;99800.94;;;8.83;100.00
21574;BME280;10948;48.706;9.258;2023-02-12T09:31:33;99798.53;;;8.76;100.00
21574;BME280;10948;48.706;9.258;2023-02-12T09:34:02;99801.34;;;8.65;100.00
21574;BME280;10948;48.706;9.258;2023-02-12T09:36:29;99797.97;;;8.60;100.00
21574;BME280;10948;48.706;9.258;2023-02-12T09:38:54;99805.16;;;8.46;100.00
21574;BME280;10948;48.706;9.258;2023-02-12T09:41:37;99802.72;;;8.81;100.00
21574;BME280;10948;48.706;9.258;2023-02-12T09:46:57;99799.25;;;9.22;100.00
21574;BME280;10948;48.706;9.258;2023-02-12T09:52:04;99797.06;;;9.02;100.00
21574;BME280;10948;48.706;9.258;2023-02-12T09:54:34;99796.03;;;9.11;100.00
21574;BME280;10948;48.706;9.258;2023-02-12T09:57:01;99798.78;;;9.03;100.00
21574;BME280;10948;48.706;9.258;2023-02-12T09:59:39;99795.56;;;8.92;100.00
21574;BME280;10948;48.706;9.258;2023-02-12T10:02:17;99802.72;;;8.81;100.00
21574;BME280;10948;48.706;9.258;2023-02-12T10:04:43;99806.53;;;8.65;100.00
21574;BME280;10948;48.706;9.258;2023-02-12T10:12:12;99806.84;;;8.91;100.00
21574;BME280;10948;48.706;9.258;2023-02-12T10:25:40;99802.03;;;8.73;100.00
21574;BME280;10948;48.706;9.258;2023-02-12T10:27:39;99798.06;;;8.97;100.00
21574;BME280;10948;48.706;9.258;2023-02-12T10:30:14;99798.84;;;8.59;100.00
21574;BME280;10948;48.706;9.258;2023-02-12T10:32:40;99797.94;;;8.62;100.00
21574;BME280;10948;48.706;9.258;2023-02-12T10:35:14;99806.53;;;8.65;100.00
21574;BME280;10948;48.706;9.258;2023-02-12T10:37:42;99802.53;;;8.48;100.00
21574;BME280;10948;48.706;9.258;2023-02-12T10:42:38;99806.44;;;8.68;100.00
21574;BME280;10948;48.706;9.258;2023-02-12T10:45:05;99792.53;;;8.72;100.00
21574;BME280;10948;48.706;9.258;2023-02-12T10:47:30;99789.72;;;9.22;100.00
21574;BME280;10948;48.706;9.258;2023-02-12T10:49:59;99783.09;;;9.46;100.00
21574;BME280;10948;48.706;9.258;2023-02-12T10:54:59;99773.16;;;8.88;100.00
21574;BME280;10948;48.706;9.258;2023-02-12T10:57:26;99781.44;;;9.05;100.00
21574;BME280;10948;48.706;9.258;2023-02-12T10:59:53;99780.50;;;8.68;100.00
21574;BME280;10948;48.706;9.258;2023-02-12T11:02:20;99778.16;;;8.97;100.00
21574;BME280;10948;48.706;9.258;2023-02-12T11:04:46;99770.00;;;8.74;100.00
21574;BME280;10948;48.706;9.258;2023-02-12T11:07:11;99776.97;;;8.72;100.00
21574;BME280;10948;48.706;9.258;2023-02-12T11:09:37;99773.78;;;8.99;100.00
21574;BME280;10948;48.706;9.258;2023-02-12T11:14:54;99772.25;;;8.48;100.00
21574;BME280;10948;48.706;9.258;2023-02-12T11:17:22;99770.28;;;9.02;100.00
21574;BME280;10948;48.706;9.258;2023-02-12T11:19:59;99768.88;;;8.86;100.00
21574;BME280;10948;48.706;9.258;2023-02-12T11:22:25;99772.72;;;8.68;100.00
21574;BME280;10948;48.706;9.258;2023-02-12T11:24:50;99776.84;;;8.78;100.00
21574;BME280;10948;48.706;9.258;2023-02-12T11:27:24;99764.44;;;8.91;100.00
21574;BME280;10948;48.706;9.258;2023-02-12T11:32:37;99763.00;;;8.76;100.00
21574;BME280;10948;48.706;9.258;2023-02-12T11:35:11;99764.03;;;8.69;100.00
21574;BME280;10948;48.706;9.258;2023-02-12T11:37:41;99763.56;;;8.92;100.00
21574;BME280;10948;48.706;9.258;2023-02-12T11:42:42;99770.50;;;8.91;100.00
21574;BME280;10948;48.706;9.258;2023-02-12T11:45:15;99765.78;;;8.69;100.00
21574;BME280;10948;48.706;9.258;2023-02-12T11:47:43;99761.94;;;8.88;100.00
21574;BME280;10948;48.706;9.258;2023-02-12T11:52:41;99761.03;;;8.89;100.00
21574;BME280;10948;48.706;9.258;2023-02-12T11:55:16;99761.31;;;8.75;100.00
21574;BME280;10948;48.706;9.258;2023-02-12T11:57:47;99750.00;;;8.78;100.00
21574;BME280;10948;48.706;9.258;2023-02-12T12:00:24;99754.66;;;8.62;100.00
21574;BME280;10948;48.706;9.258;2023-02-12T12:03:01;99755.16;;;9.19;100.00
21574;BME280;10948;48.706;9.258;2023-02-12T12:05:30;99749.53;;;9.00;100.00
21574;BME280;10948;48.706;9.258;2023-02-12T12:07:58;99749.34;;;8.68;100.00
21574;BME280;10948;48.706;9.258;2023-02-12T12:13:12;99749.59;;;8.97;100.00
21574;BME280;10948;48.706;9.258;2023-02-12T12:15:45;99753.28;;;8.87;100.00
21574;BME280;10948;48.706;9.258;2023-02-12T12:18:33;99746.38;;;8.86;100.00
21574;BME280;10948;48.706;9.258;2023-02-12T12:24:12;99741.88;;;9.31;100.00
21574;BME280;10948;48.706;9.258;2023-02-12T12:26:40;99735.13;;;9.24;100.00
21574;BME280;10948;48.706;9.258;2023-02-12T12:29:25;99733.59;;;9.87;100.00
21574;BME280;10948;48.706;9.258;2023-02-12T12:31:55;99733.50;;;10.23;100.00
21574;BME280;10948;48.706;9.258;2023-02-12T12:34:22;99736.88;;;10.57;99.09
21574;BME280;10948;48.706;9.258;2023-02-12T12:47:44;99724.19;;;10.45;100.00
21574;BME280;10948;48.706;9.258;2023-02-12T13:03:02;99718.75;;;9.55;100.00
21574;BME280;10948;48.706;9.258;2023-02-12T13:10:59;99707.34;;;11.14;97.98
21574;BME280;10948;48.706;9.258;2023-02-12T13:23:41;99699.16;;;10.70;99.18
21574;BME280;10948;48.706;9.258;2023-02-12T13:28:48;99689.09;;;10.87;99.13
21574;BME280;10948;48.706;9.258;2023-02-12T13:31:19;99690.84;;;10.87;97.71
21574;BME280;10948;48.706;9.258;2023-02-12T13:33:46;99680.16;;;11.23;93.57
21574;BME280;10948;48.706;9.258;2023-02-12T13:36:13;99685.47;;;11.72;91.03
21574;BME280;10948;48.706;9.258;2023-02-12T13:38:41;99679.47;;;11.70;88.72
21574;BME280;10948;48.706;9.258;2023-02-12T13:41:08;99682.44;;;11.84;86.71
21574;BME280;10948;48.706;9.258;2023-02-12T13:46:20;99675.31;;;10.83;94.15
21574;BME280;10948;48.706;9.258;2023-02-12T13:56:41;99676.50;;;11.01;94.41
21574;BME280;10948;48.706;9.258;2023-02-12T14:04:53;99664.38;;;11.26;95.00
21574;BME280;10948;48.706;9.258;2023-02-12T14:07:19;99668.50;;;11.33;95.72
21574;BME280;10948;48.706;9.258;2023-02-12T14:12:12;99665.34;;;10.96;95.97
21574;BME280;10948;48.706;9.258;2023-02-12T14:14:46;99667.97;;;11.22;92.64
21574;BME280;10948;48.706;9.258;2023-02-12T14:19:53;99660.34;;;10.90;96.49
21574;BME280;10948;48.706;9.258;2023-02-12T14:24:54;99658.91;;;10.80;96.02
21574;BME280;10948;48.706;9.258;2023-02-12T14:27:26;99650.81;;;10.62;95.58
21574;BME280;10948;48.706;9.258;2023-02-12T14:35:31;99643.22;;;10.83;98.63
21574;BME280;10948;48.706;9.258;2023-02-12T14:37:58;99651.72;;;10.88;93.25
21574;BME280;10948;48.706;9.258;2023-02-12T14:42:59;99644.66;;;10.35;97.47
21574;BME280;10948;48.706;9.258;2023-02-12T14:45:32;99639.97;;;10.48;97.03
21574;BME280;10948;48.706;9.258;2023-02-12T14:47:59;99637.66;;;10.08;98.67
21574;BME280;10948;48.706;9.258;2023-02-12T14:50:25;99635.56;;;10.21;99.86
21574;BME280;10948;48.706;9.258;2023-02-12T14:52:54;99631.31;;;9.86;100.00
21574;BME280;10948;48.706;9.258;2023-02-12T14:55:24;99628.44;;;9.95;100.00
21574;BME280;10948;48.706;9.258;2023-02-12T14:57:51;99631.38;;;10.15;100.00
21574;BME280;10948;48.706;9.258;2023-02-12T15:00:26;99638.47;;;9.78;100.00
21574;BME280;10948;48.706;9.258;2023-02-12T15:05:38;99629.19;;;9.68;100.00
21574;BME280;10948;48.706;9.258;2023-02-12T15:10:41;99637.53;;;9.49;100.00
21574;BME280;10948;48.706;9.258;2023-02-12T15:23:43;99638.22;;;9.22;100.00
21574;BME280;10948;48.706;9.258;2023-02-12T15:26:13;99633.22;;;9.13;100.00
21574;BME280;10948;48.706;9.258;2023-02-12T15:28:39;99626.22;;;9.16;100.00
21574;BME280;10948;48.706;9.258;2023-02-12T15:31:06;99630.59;;;9.14;100.00
21574;BME280;10948;48.706;9.258;2023-02-12T15:33:34;99624.56;;;9.14;100.00
21574;BME280;10948;48.706;9.258;2023-02-12T15:36:01;99625.50;;;9.11;100.00
21574;BME280;10948;48.706;9.258;2023-02-12T15:38:37;99630.09;;;8.99;100.00
21574;BME280;10948;48.706;9.258;2023-02-12T15:41:05;99622.84;;;9.13;100.00
21574;BME280;10948;48.706;9.258;2023-02-12T15:43:32;99627.31;;;9.08;100.00
21574;BME280;10948;48.706;9.258;2023-02-12T15:46:00;99629.94;;;9.06;100.00
21574;BME280;10948;48.706;9.258;2023-02-12T15:48:29;99627.25;;;8.74;100.00
21574;BME280;10948;48.706;9.258;2023-02-12T15:53:31;99617.81;;;8.70;100.00
21574;BME280;10948;48.706;9.258;2023-02-12T15:55:57;99620.59;;;8.63;100.00
21574;BME280;10948;48.706;9.258;2023-02-12T15:58:36;99622.03;;;8.76;100.00
21574;BME280;10948;48.706;9.258;2023-02-12T16:01:06;99619.84;;;8.56;100.00
21574;BME280;10948;48.706;9.258;2023-02-12T16:03:33;99627.09;;;8.42;100.00
21574;BME280;10948;48.706;9.258;2023-02-12T16:06:11;99620.22;;;8.40;100.00
21574;BME280;10948;48.706;9.258;2023-02-12T16:08:42;99623.25;;;8.20;100.00
21574;BME280;10948;48.706;9.258;2023-02-12T16:11:08;99629.53;;;8.07;100.00